createdAt,value
2023-04-15T00:00:34.043Z,99591.12
2023-04-15T00:04:15.592Z,99593.02
2023-04-15T00:07:42.710Z,99592.15
2023-04-15T00:11:09.652Z,99590.73
2023-04-15T00:14:36.805Z,99595.45
2023-04-15T00:18:04.600Z,99594.22
2023-04-15T00:21:32.625Z,99592.30
2023-04-15T00:24:59.609Z,99591.95
2023-04-15T00:28:26.865Z,99594.19
2023-04-15T00:31:54.075Z,99590.54
2023-04-15T00:35:21.793Z,99587.74
2023-04-15T00:38:49.105Z,99581.98
2023-04-15T00:42:16.498Z,99589.61
2023-04-15T00:45:43.564Z,99583.31
2023-04-15T00:49:11.346Z,99577.38
2023-04-15T00:52:38.275Z,99575.45
2023-04-15T00:56:05.587Z,99577.70
2023-04-15T00:59:34.637Z,99582.20
2023-04-15T01:03:02.320Z,99579.06
2023-04-15T01:06:29.779Z,99578.50
2023-04-15T01:09:57.320Z,99574.30
2023-04-15T01:13:25.296Z,99581.42
2023-04-15T01:16:53.875Z,99578.44
2023-04-15T01:20:22.190Z,99581.02
2023-04-15T01:23:50.405Z,99579.98
2023-04-15T01:27:17.349Z,99586.40
2023-04-15T01:30:44.708Z,99586.04
2023-04-15T01:34:12.320Z,99586.37
2023-04-15T01:37:39.541Z,99585.48
2023-04-15T01:41:07.718Z,99591.58
2023-04-15T01:44:34.759Z,99594.54
2023-04-15T01:48:02.399Z,99593.66
2023-04-15T01:51:29.544Z,99589.27
2023-04-15T01:54:57.160Z,99589.63
2023-04-15T01:58:24.022Z,99593.79
2023-04-15T02:01:50.967Z,99598.84
2023-04-15T02:05:18.052Z,99597.80
2023-04-15T02:08:45.957Z,99592.05
2023-04-15T02:12:12.992Z,99589.41
2023-04-15T02:15:40.050Z,99593.06
2023-04-15T02:19:07.974Z,99590.80
2023-04-15T02:22:37.653Z,99590.29
2023-04-15T02:26:04.683Z,99588.88
2023-04-15T02:29:32.700Z,99590.09
2023-04-15T02:33:01.372Z,99591.65
2023-04-15T02:36:29.809Z,99589.56
2023-04-15T02:39:56.720Z,99592.70
2023-04-15T02:43:23.874Z,99589.92
2023-04-15T02:46:52.767Z,99592.70
2023-04-15T02:50:23.567Z,99591.13
2023-04-15T02:53:50.886Z,99591.13
2023-04-15T02:57:18.135Z,99590.05
2023-04-15T03:00:45.188Z,99593.19
2023-04-15T03:04:12.036Z,99594.39
2023-04-15T03:07:40.421Z,99592.95
2023-04-15T03:11:08.520Z,99596.04
2023-04-15T03:14:36.553Z,99594.60
2023-04-15T03:18:03.698Z,99593.52
2023-04-15T03:21:30.824Z,99597.30
2023-04-15T03:24:58.162Z,99600.39
2023-04-15T03:28:25.083Z,99598.95
2023-04-15T03:31:53.083Z,99603.27
2023-04-15T03:35:20.428Z,99603.93
2023-04-15T03:38:47.241Z,99610.88
2023-04-15T03:42:14.165Z,99613.64
2023-04-15T03:45:41.080Z,99615.18
2023-04-15T03:49:10.090Z,99613.95
2023-04-15T03:52:36.899Z,99615.84
2023-04-15T03:56:03.712Z,99618.77
2023-04-15T03:59:30.697Z,99621.52
2023-04-15T04:02:57.910Z,99620.29
2023-04-15T04:06:25.019Z,99622.52
2023-04-15T04:09:51.997Z,99623.35
2023-04-15T04:13:18.886Z,99624.18
2023-04-15T04:16:45.904Z,99622.77
2023-04-15T04:20:13.815Z,99626.43
2023-04-15T04:23:40.718Z,99628.84
2023-04-15T04:27:08.102Z,99625.52
2023-04-15T04:30:36.564Z,99619.05
2023-04-15T04:34:03.575Z,99626.52
2023-04-15T04:37:30.800Z,99622.66
2023-04-15T04:40:57.631Z,99629.23
2023-04-15T04:44:24.439Z,99633.91
2023-04-15T04:47:51.742Z,99629.89
2023-04-15T04:51:19.047Z,99639.98
2023-04-15T04:54:45.998Z,99635.11
2023-04-15T04:58:13.221Z,99641.55
2023-04-15T05:01:40.160Z,99642.92
2023-04-15T05:05:08.916Z,99641.35
2023-04-15T05:08:36.956Z,99649.36
2023-04-15T05:12:05.573Z,99646.23
2023-04-15T05:15:33.091Z,99646.59
2023-04-15T05:19:00.079Z,99647.45
2023-04-15T05:22:27.347Z,99645.02
2023-04-15T05:25:54.243Z,99646.06
2023-04-15T05:29:21.046Z,99650.09
2023-04-15T05:32:47.979Z,99649.75
2023-04-15T05:36:14.904Z,99652.89
2023-04-15T05:39:42.501Z,99657.23
2023-04-15T05:43:09.556Z,99655.48
2023-04-15T05:46:36.383Z,99653.92
2023-04-15T05:50:03.431Z,99650.98
2023-04-15T05:53:30.399Z,99653.09
2023-04-15T05:56:57.606Z,99656.23
2023-04-15T06:00:24.785Z,99661.31
2023-04-15T06:03:51.836Z,99664.64
2023-04-15T06:07:18.819Z,99664.84
2023-04-15T06:10:46.183Z,99672.14
2023-04-15T06:14:13.171Z,99672.50
2023-04-15T06:17:40.160Z,99670.61
2023-04-15T06:21:08.079Z,99675.84
2023-04-15T06:24:34.753Z,99676.77
2023-04-15T06:28:02.112Z,99675.43
2023-04-15T06:31:29.469Z,99679.63
2023-04-15T06:34:56.444Z,99680.68
2023-04-15T06:38:23.408Z,99675.29
2023-04-15T06:41:50.135Z,99684.38
2023-04-15T06:45:19.559Z,99682.70
2023-04-15T06:48:46.514Z,99691.32
2023-04-15T06:52:13.758Z,99694.70
2023-04-15T06:55:41.509Z,99698.73
2023-04-15T06:59:08.806Z,99699.81
2023-04-15T07:02:35.768Z,99699.02
2023-04-15T07:06:06.665Z,99706.92
2023-04-15T07:09:34.368Z,99704.23
2023-04-15T07:13:01.858Z,99704.69
2023-04-15T07:16:29.957Z,99706.65
2023-04-15T07:19:57.066Z,99708.95
2023-04-15T07:23:24.124Z,99716.31
2023-04-15T07:26:51.166Z,99719.44
2023-04-15T07:30:18.056Z,99722.39
2023-04-15T07:33:44.894Z,99722.71
2023-04-15T07:37:12.133Z,99727.77
2023-04-15T07:40:39.279Z,99727.41
2023-04-15T07:44:06.820Z,99733.16
2023-04-15T07:47:33.922Z,99727.45
2023-04-15T07:51:00.782Z,99732.85
2023-04-15T07:54:28.514Z,99734.09
2023-04-15T07:57:55.896Z,99739.34
2023-04-15T08:01:22.753Z,99744.41
2023-04-15T08:04:49.713Z,99745.27
2023-04-15T08:08:16.858Z,99746.69
2023-04-15T08:11:43.906Z,99750.19
2023-04-15T08:15:13.162Z,99751.93
2023-04-15T08:18:40.151Z,99756.85
2023-04-15T08:22:10.817Z,99752.33
2023-04-15T08:25:44.499Z,99756.35
2023-04-15T08:29:11.452Z,99758.32
2023-04-15T08:32:38.682Z,99759.92
2023-04-15T08:36:06.613Z,99764.14
2023-04-15T08:39:33.774Z,99764.04
2023-04-15T08:43:03.202Z,99768.44
2023-04-15T08:46:31.474Z,99766.38
2023-04-15T08:50:00.593Z,99771.98
2023-04-15T08:53:30.595Z,99775.33
2023-04-15T08:57:00.843Z,99780.78
2023-04-15T09:00:30.427Z,99783.63
2023-04-15T09:04:01.209Z,99784.19
2023-04-15T09:07:31.342Z,99783.02
2023-04-15T09:11:00.826Z,99782.20
2023-04-15T09:14:32.408Z,99788.70
2023-04-15T09:18:04.615Z,99791.54
2023-04-15T09:21:35.882Z,99789.48
2023-04-15T09:25:04.406Z,99787.05
2023-04-15T09:28:33.581Z,99790.02
2023-04-15T09:32:16.144Z,99794.58
2023-04-15T09:35:46.516Z,99794.05
2023-04-15T09:39:21.035Z,99795.13
2023-04-15T09:43:05.550Z,99809.08
2023-04-15T09:46:49.178Z,99816.14
2023-04-15T09:50:19.726Z,99818.52
2023-04-15T09:53:46.883Z,99816.08
2023-04-15T09:57:13.657Z,99820.45
2023-04-15T10:00:40.860Z,99824.52
2023-04-15T10:04:09.780Z,99820.19
2023-04-15T10:07:37.088Z,99819.73
2023-04-15T10:11:05.308Z,99817.67
2023-04-15T10:14:39.464Z,99822.60
2023-04-15T10:18:09.171Z,99824.54
2023-04-15T10:21:35.139Z,99827.55
2023-04-15T10:25:04.416Z,99831.45
2023-04-15T10:28:31.538Z,99833.73
2023-04-15T10:32:00.126Z,99833.92
2023-04-15T10:35:28.004Z,99832.34
2023-04-15T10:38:55.076Z,99840.76
2023-04-15T10:42:22.633Z,99836.73
2023-04-15T10:45:50.737Z,99841.48
2023-04-15T10:49:25.484Z,99846.92
2023-04-15T10:52:55.224Z,99843.46
2023-04-15T10:56:20.580Z,99847.35
2023-04-15T11:00:15.014Z,99844.55
2023-04-15T11:03:44.460Z,99845.77
2023-04-15T11:07:11.694Z,99846.29
2023-04-15T11:10:55.239Z,99849.09
2023-04-15T11:14:22.394Z,99853.81
2023-04-15T11:17:50.056Z,99854.86
2023-04-15T11:21:17.536Z,99858.01
2023-04-15T11:24:51.981Z,99865.00
2023-04-15T11:28:18.780Z,99866.91
2023-04-15T11:31:49.983Z,99871.43
2023-04-15T11:35:17.335Z,99875.98
2023-04-15T11:38:47.872Z,99880.38
2023-04-15T11:42:21.582Z,99885.47
2023-04-15T11:45:54.931Z,99879.02
2023-04-15T11:49:34.187Z,99881.11
2023-04-15T11:53:03.402Z,99887.06
2023-04-15T11:56:32.564Z,99886.54
2023-04-15T12:00:01.237Z,99887.24
2023-04-15T12:03:31.248Z,99893.70
2023-04-15T12:07:07.913Z,99904.73
2023-04-15T12:10:37.049Z,99904.56
2023-04-15T12:14:09.325Z,99909.64
2023-04-15T12:17:51.694Z,99912.79
2023-04-15T12:21:21.768Z,99918.03
2023-04-15T12:24:49.609Z,99919.42
2023-04-15T12:28:18.770Z,99923.09
2023-04-15T12:31:56.082Z,99924.30
2023-04-15T12:35:23.054Z,99929.18
2023-04-15T12:38:49.953Z,99934.60
2023-04-15T12:42:18.179Z,99935.48
2023-04-15T12:45:45.207Z,99937.91
2023-04-15T12:49:12.093Z,99939.77
2023-04-15T12:52:38.950Z,99942.91
2023-04-15T12:56:06.592Z,99942.90
2023-04-15T12:59:33.543Z,99945.52
2023-04-15T13:03:00.530Z,99950.41
2023-04-15T13:06:29.181Z,99954.80
2023-04-15T13:09:56.952Z,99952.40
2023-04-15T13:13:23.829Z,99956.44
2023-04-15T13:16:50.918Z,99956.48
2023-04-15T13:20:18.692Z,99957.54
2023-04-15T13:23:45.921Z,99962.61
2023-04-15T13:27:12.965Z,99962.96
2023-04-15T13:30:40.518Z,99963.85
2023-04-15T13:34:07.841Z,99967.52
2023-04-15T13:37:35.411Z,99969.98
2023-04-15T13:41:02.468Z,99972.61
2023-04-15T13:44:29.604Z,99975.75
2023-04-15T13:47:56.776Z,99977.15
2023-04-15T13:51:23.983Z,99981.34
2023-04-15T13:55:08.350Z,99981.70
2023-04-15T13:58:38.738Z,99984.52
2023-04-15T14:02:06.672Z,99982.78
2023-04-15T14:05:35.325Z,99985.25
2023-04-15T14:09:02.603Z,99984.21
2023-04-15T14:12:30.114Z,99985.62
2023-04-15T14:15:58.472Z,99984.75
2023-04-15T14:19:26.648Z,99988.08
2023-04-15T14:22:53.755Z,99987.38
2023-04-15T14:26:21.611Z,99990.35
2023-04-15T14:29:48.484Z,99992.27
2023-04-15T14:33:15.645Z,99993.85
2023-04-15T14:36:42.911Z,99995.95
2023-04-15T14:40:11.986Z,99998.41
2023-04-15T14:43:39.221Z,99998.06
2023-04-15T14:47:07.091Z,99999.98
2023-04-15T14:50:34.082Z,100004.35
2023-04-15T14:54:01.256Z,100000.50
2023-04-15T14:57:28.401Z,100007.67
2023-04-15T15:00:55.478Z,100006.79
2023-04-15T15:04:22.288Z,100004.16
2023-04-15T15:07:49.465Z,100002.21
2023-04-15T15:11:17.033Z,100004.14
2023-04-15T15:14:44.132Z,100008.51
2023-04-15T15:18:11.381Z,100009.19
2023-04-15T15:21:41.195Z,100013.00
2023-04-15T15:25:09.444Z,100015.75
2023-04-15T15:28:36.648Z,100017.73
2023-04-15T15:32:04.023Z,100019.73
2023-04-15T15:35:31.118Z,100020.08
2023-04-15T15:38:59.641Z,100027.09
2023-04-15T15:42:26.842Z,100028.48
2023-04-15T15:45:55.587Z,100026.91
2023-04-15T15:49:22.667Z,100031.95
2023-04-15T15:52:51.965Z,100033.16
2023-04-15T15:56:22.301Z,100036.65
2023-04-15T15:59:53.105Z,100042.23
2023-04-15T16:03:27.146Z,100046.23
2023-04-15T16:06:58.452Z,100058.80
2023-04-15T16:10:28.713Z,100065.27
2023-04-15T16:14:01.103Z,100068.41
2023-04-15T16:17:32.153Z,100069.45
2023-04-15T16:21:02.681Z,100069.11
2023-04-15T16:24:34.985Z,100078.54
2023-04-15T16:28:11.784Z,100079.77
2023-04-15T16:31:49.632Z,100083.09
2023-04-15T16:35:19.236Z,100089.38
2023-04-15T16:38:48.730Z,100091.33
2023-04-15T16:42:15.251Z,100096.36
2023-04-15T16:45:45.260Z,100100.17
2023-04-15T16:49:14.191Z,100099.95
2023-04-15T16:52:41.825Z,100106.25
2023-04-15T16:56:10.349Z,100109.59
2023-04-15T16:59:39.209Z,100114.46
2023-04-15T17:03:06.960Z,100122.63
2023-04-15T17:06:34.859Z,100125.35
2023-04-15T17:10:05.106Z,100130.38
2023-04-15T17:13:37.992Z,100129.45
2023-04-15T17:17:07.511Z,100131.83
2023-04-15T17:20:34.455Z,100134.77
2023-04-15T17:24:01.838Z,100136.45
2023-04-15T17:27:29.964Z,100137.60
2023-04-15T17:30:57.995Z,100144.14
2023-04-15T17:34:27.561Z,100147.77
2023-04-15T17:38:17.194Z,100148.38
2023-04-15T17:41:48.491Z,100153.04
2023-04-15T17:45:18.581Z,100156.27
2023-04-15T17:48:48.227Z,100158.09
2023-04-15T17:52:25.357Z,100157.81
2023-04-15T17:55:55.729Z,100154.70
2023-04-15T17:59:23.572Z,100152.13
2023-04-15T18:02:53.713Z,100156.19
2023-04-15T18:06:22.478Z,100152.95
2023-04-15T18:09:50.785Z,100167.67
2023-04-15T18:13:18.961Z,100180.85
2023-04-15T18:16:46.674Z,100184.45
2023-04-15T18:20:15.775Z,100183.52
2023-04-15T18:23:48.063Z,100190.09
2023-04-15T18:27:17.516Z,100194.56
2023-04-15T18:30:45.411Z,100199.75
2023-04-15T18:34:13.815Z,100196.91
2023-04-15T18:37:40.932Z,100197.91
2023-04-15T18:41:10.234Z,100203.06
2023-04-15T18:44:38.548Z,100203.33
2023-04-15T18:48:08.552Z,100211.97
2023-04-15T18:51:35.997Z,100216.44
2023-04-15T18:55:05.861Z,100217.60
2023-04-15T18:59:18.288Z,100220.86
2023-04-15T19:02:23.949Z,100217.31
2023-04-15T19:05:53.877Z,100209.44
2023-04-15T19:09:22.463Z,100216.02
2023-04-15T19:12:51.310Z,100223.81
2023-04-15T19:16:19.939Z,100233.73
2023-04-15T19:19:47.331Z,100236.68
2023-04-15T19:23:15.222Z,100239.31
2023-04-15T19:26:45.585Z,100239.84
2023-04-15T19:30:13.463Z,100242.84
2023-04-15T19:33:41.329Z,100250.16
2023-04-15T19:37:08.863Z,100250.16
2023-04-15T19:40:35.938Z,100258.52
2023-04-15T19:44:04.619Z,100268.10
2023-04-15T19:47:31.627Z,100268.63
2023-04-15T19:50:59.852Z,100269.49
2023-04-15T19:54:27.029Z,100274.37
2023-04-15T19:57:54.112Z,100271.75
2023-04-15T20:01:21.560Z,100271.71
2023-04-15T20:04:49.280Z,100269.61
2023-04-15T20:08:16.552Z,100276.56
2023-04-15T20:12:45.606Z,100278.24
2023-04-15T20:15:30.620Z,100280.24
2023-04-15T20:18:59.603Z,100284.20
2023-04-15T20:22:26.348Z,100282.57
2023-04-15T20:25:53.228Z,100284.77
2023-04-15T20:29:21.281Z,100284.15
2023-04-15T20:32:48.503Z,100290.17
2023-04-15T20:36:16.938Z,100296.18
2023-04-15T20:39:44.235Z,100301.48
2023-04-15T20:43:11.163Z,100297.04
2023-04-15T20:46:38.265Z,100300.29
2023-04-15T20:50:05.910Z,100306.16
2023-04-15T20:53:32.947Z,100311.88
2023-04-15T20:57:00.177Z,100313.77
2023-04-15T21:00:27.559Z,100315.67
2023-04-15T21:03:54.646Z,100323.86
2023-04-15T21:07:21.648Z,100321.77
2023-04-15T21:10:50.968Z,100328.75
2023-04-15T21:14:18.145Z,100339.04
2023-04-15T21:17:45.199Z,100344.27
2023-04-15T21:21:12.213Z,100346.54
2023-04-15T21:24:39.111Z,100350.20
2023-04-15T21:28:06.441Z,100350.37
2023-04-15T21:31:33.275Z,100354.03
2023-04-15T21:35:00.175Z,100364.47
2023-04-15T21:38:27.216Z,100371.60
2023-04-15T21:41:54.046Z,100372.81
2023-04-15T21:45:21.282Z,100375.79
2023-04-15T21:48:48.397Z,100373.33
2023-04-15T21:52:15.440Z,100373.48
2023-04-15T21:55:42.405Z,100372.08
2023-04-15T21:59:09.264Z,100376.24
2023-04-15T22:02:37.849Z,100381.46
2023-04-15T22:06:05.553Z,100382.50
2023-04-15T22:09:32.386Z,100385.11
2023-04-15T22:13:02.767Z,100390.15
2023-04-15T22:16:30.498Z,100389.96
2023-04-15T22:19:57.676Z,100394.61
2023-04-15T22:23:24.846Z,100402.59
2023-04-15T22:26:52.372Z,100404.94
2023-04-15T22:30:20.555Z,100406.95
2023-04-15T22:33:47.516Z,100410.15
2023-04-15T22:37:14.616Z,100415.61
2023-04-15T22:40:43.712Z,100417.95
2023-04-15T22:44:12.838Z,100426.39
2023-04-15T22:47:40.044Z,100430.16
2023-04-15T22:51:07.731Z,100434.84
2023-04-15T22:54:34.712Z,100440.70
2023-04-15T22:58:01.837Z,100445.23
2023-04-15T23:01:29.503Z,100444.02
2023-04-15T23:04:57.097Z,100441.08
2023-04-15T23:08:25.015Z,100439.52
2023-04-15T23:11:52.247Z,100445.98
2023-04-15T23:15:19.057Z,100446.70
2023-04-15T23:18:45.973Z,100449.70
2023-04-15T23:22:12.952Z,100446.41
2023-04-15T23:25:42.184Z,100445.27
2023-04-15T23:29:11.981Z,100445.98
2023-04-15T23:32:39.389Z,100445.84
2023-04-15T23:36:07.707Z,100449.36
2023-04-15T23:39:34.705Z,100448.39
2023-04-15T23:43:01.857Z,100451.93
2023-04-15T23:46:28.909Z,100454.92
2023-04-15T23:49:56.516Z,100454.11
2023-04-15T23:53:23.508Z,100456.75
2023-04-15T23:56:51.105Z,100458.70
